Ballynahinch, United Kingdom
Current Conditions -  °F | °C
As of 5:20 PM on Friday 19 Dec 2014 (Local Time) from EGAC Reporting Station
Rain Showers Rain Showers  
Wind Chill: 35°   Ceiling: Unl
Heat Index: 43°   Visibility: 6mi
Dew Point: 37°   Wind: 18mph
Humidity: 81%   Direction: 250°WSW
Pressure: 29.94"   Gusts: 33mph
Location:  54.4°N, 5.88°W
Report Text: EGAC 191720Z 25016G29KT 9999 VCSH FEW020 06/03 Q1014
Loading
Personal Weather Stations






























Interactive Weather Map New forecast layout! Learn more

10-Day Weather Forecast

Advertisements
Track Severe Weather on mobile